Letona, Arkansas
Current Conditions -  °F | °C
As of 12:56 PM on Friday 21 Nov 2014 (Local Time) from KSRC Reporting Station
Light Rain Light Rain  
Wind Chill: 39°   Ceiling: 500
Heat Index: 44°   Visibility: 4mi
Dew Point: 43°   Wind: 9mph
Humidity: 96%   Direction: 50°NE
Pressure: 30.3"   Gusts: NA
Location:  35.36°N, 91.83°W
Report Text: KSRC 211856Z AUTO 05008KT 4SM -RA BR OVC005 07/06 A3030 RMK AO2 SLP269 P0006 T00670061 TSNO
Loading
Personal Weather Stations






























Interactive Weather Map New forecast layout! Learn more

10-Day Weather Forecast

Advertisements
Track Severe Weather on mobile